sensor_id;sensor_type;location;lat;lon;timestamp;P1;durP1;ratioP1;P2;durP2;ratioP2
11582;SDS011;34299;50.820;4.548;2023-08-17T00:02:19;2.93;;;2.63;;
11582;SDS011;34299;50.820;4.548;2023-08-17T00:04:46;4.30;;;2.50;;
11582;SDS011;34299;50.820;4.548;2023-08-17T00:07:13;2.83;;;2.50;;
11582;SDS011;34299;50.820;4.548;2023-08-17T00:09:40;3.97;;;2.80;;
11582;SDS011;34299;50.820;4.548;2023-08-17T00:12:07;3.13;;;2.87;;
11582;SDS011;34299;50.820;4.548;2023-08-17T00:14:34;3.13;;;2.83;;
11582;SDS011;34299;50.820;4.548;2023-08-17T00:17:02;4.10;;;2.90;;
11582;SDS011;34299;50.820;4.548;2023-08-17T00:19:29;4.67;;;2.70;;
11582;SDS011;34299;50.820;4.548;2023-08-17T00:21:56;2.90;;;2.70;;
11582;SDS011;34299;50.820;4.548;2023-08-17T00:24:23;3.70;;;2.47;;
11582;SDS011;34299;50.820;4.548;2023-08-17T00:26:51;4.07;;;2.70;;
11582;SDS011;34299;50.820;4.548;2023-08-17T00:29:17;3.10;;;2.50;;
11582;SDS011;34299;50.820;4.548;2023-08-17T00:31:44;3.87;;;2.53;;
11582;SDS011;34299;50.820;4.548;2023-08-17T00:34:13;3.53;;;2.50;;
11582;SDS011;34299;50.820;4.548;2023-08-17T00:36:40;3.13;;;2.23;;
11582;SDS011;34299;50.820;4.548;2023-08-17T00:39:07;2.63;;;2.30;;
11582;SDS011;34299;50.820;4.548;2023-08-17T00:41:34;6.03;;;2.77;;
11582;SDS011;34299;50.820;4.548;2023-08-17T00:44:01;3.93;;;2.43;;
11582;SDS011;34299;50.820;4.548;2023-08-17T00:46:27;4.73;;;3.13;;
11582;SDS011;34299;50.820;4.548;2023-08-17T00:48:56;3.23;;;2.60;;
11582;SDS011;34299;50.820;4.548;2023-08-17T00:51:26;3.70;;;2.53;;
11582;SDS011;34299;50.820;4.548;2023-08-17T00:53:54;3.13;;;2.83;;
11582;SDS011;34299;50.820;4.548;2023-08-17T00:56:24;3.03;;;2.77;;
11582;SDS011;34299;50.820;4.548;2023-08-17T00:58:51;2.50;;;2.30;;
11582;SDS011;34299;50.820;4.548;2023-08-17T01:01:19;2.77;;;2.53;;
11582;SDS011;34299;50.820;4.548;2023-08-17T01:03:47;3.23;;;2.67;;
11582;SDS011;34299;50.820;4.548;2023-08-17T01:06:14;2.50;;;2.30;;
11582;SDS011;34299;50.820;4.548;2023-08-17T01:08:43;2.83;;;2.40;;
11582;SDS011;34299;50.820;4.548;2023-08-17T01:11:12;4.07;;;2.37;;
11582;SDS011;34299;50.820;4.548;2023-08-17T01:13:47;2.57;;;2.37;;
11582;SDS011;34299;50.820;4.548;2023-08-17T01:16:20;3.97;;;2.57;;
11582;SDS011;34299;50.820;4.548;2023-08-17T01:18:52;2.37;;;2.17;;
11582;SDS011;34299;50.820;4.548;2023-08-17T01:21:21;3.23;;;2.20;;
11582;SDS011;34299;50.820;4.548;2023-08-17T01:23:58;2.90;;;2.37;;
11582;SDS011;34299;50.820;4.548;2023-08-17T01:26:26;6.00;;;3.13;;
11582;SDS011;34299;50.820;4.548;2023-08-17T01:28:53;2.50;;;2.13;;
11582;SDS011;34299;50.820;4.548;2023-08-17T01:31:23;3.07;;;2.60;;
11582;SDS011;34299;50.820;4.548;2023-08-17T01:33:56;3.83;;;2.37;;
11582;SDS011;34299;50.820;4.548;2023-08-17T01:36:30;3.07;;;2.27;;
11582;SDS011;34299;50.820;4.548;2023-08-17T01:39:03;2.70;;;2.50;;
11582;SDS011;34299;50.820;4.548;2023-08-17T01:41:31;4.37;;;3.40;;
11582;SDS011;34299;50.820;4.548;2023-08-17T01:43:59;4.13;;;2.70;;
11582;SDS011;34299;50.820;4.548;2023-08-17T01:46:29;2.27;;;2.03;;
11582;SDS011;34299;50.820;4.548;2023-08-17T01:48:58;3.37;;;2.90;;
11582;SDS011;34299;50.820;4.548;2023-08-17T01:51:25;2.67;;;2.40;;
11582;SDS011;34299;50.820;4.548;2023-08-17T01:53:52;4.83;;;2.83;;
11582;SDS011;34299;50.820;4.548;2023-08-17T01:56:21;3.77;;;2.40;;
11582;SDS011;34299;50.820;4.548;2023-08-17T01:58:48;2.70;;;2.27;;
11582;SDS011;34299;50.820;4.548;2023-08-17T02:01:15;2.47;;;2.20;;
11582;SDS011;34299;50.820;4.548;2023-08-17T02:03:42;5.20;;;2.70;;
11582;SDS011;34299;50.820;4.548;2023-08-17T02:06:09;2.70;;;2.50;;
11582;SDS011;34299;50.820;4.548;2023-08-17T02:08:37;4.23;;;2.77;;
11582;SDS011;34299;50.820;4.548;2023-08-17T02:11:04;2.73;;;2.53;;
11582;SDS011;34299;50.820;4.548;2023-08-17T02:13:32;4.03;;;2.83;;
11582;SDS011;34299;50.820;4.548;2023-08-17T02:15:59;2.50;;;2.23;;
11582;SDS011;34299;50.820;4.548;2023-08-17T02:18:26;4.87;;;2.70;;
11582;SDS011;34299;50.820;4.548;2023-08-17T02:20:56;2.53;;;2.33;;
11582;SDS011;34299;50.820;4.548;2023-08-17T02:23:23;4.00;;;2.10;;
11582;SDS011;34299;50.820;4.548;2023-08-17T02:25:49;5.80;;;2.77;;
11582;SDS011;34299;50.820;4.548;2023-08-17T02:28:16;3.77;;;2.67;;
11582;SDS011;34299;50.820;4.548;2023-08-17T02:30:45;2.77;;;2.50;;
11582;SDS011;34299;50.820;4.548;2023-08-17T02:33:13;4.03;;;2.50;;
11582;SDS011;34299;50.820;4.548;2023-08-17T02:35:39;4.13;;;2.53;;
11582;SDS011;34299;50.820;4.548;2023-08-17T02:38:06;4.23;;;2.50;;
11582;SDS011;34299;50.820;4.548;2023-08-17T02:40:33;2.90;;;2.57;;
11582;SDS011;34299;50.820;4.548;2023-08-17T02:43:00;3.80;;;2.97;;
11582;SDS011;34299;50.820;4.548;2023-08-17T02:45:27;3.20;;;2.90;;
11582;SDS011;34299;50.820;4.548;2023-08-17T02:47:55;2.93;;;2.63;;
11582;SDS011;34299;50.820;4.548;2023-08-17T02:50:22;3.00;;;2.33;;
11582;SDS011;34299;50.820;4.548;2023-08-17T02:52:49;3.50;;;2.50;;
11582;SDS011;34299;50.820;4.548;2023-08-17T02:55:16;3.50;;;2.87;;
11582;SDS011;34299;50.820;4.548;2023-08-17T02:57:43;2.23;;;1.97;;
11582;SDS011;34299;50.820;4.548;2023-08-17T03:00:11;2.70;;;2.37;;
11582;SDS011;34299;50.820;4.548;2023-08-17T03:02:39;4.47;;;2.50;;
11582;SDS011;34299;50.820;4.548;2023-08-17T03:05:07;4.03;;;2.53;;
11582;SDS011;34299;50.820;4.548;2023-08-17T03:07:34;3.07;;;2.50;;
11582;SDS011;34299;50.820;4.548;2023-08-17T03:10:01;2.80;;;2.60;;
11582;SDS011;34299;50.820;4.548;2023-08-17T03:12:28;3.40;;;2.40;;
11582;SDS011;34299;50.820;4.548;2023-08-17T03:14:55;4.40;;;2.40;;
11582;SDS011;34299;50.820;4.548;2023-08-17T03:17:22;2.83;;;2.53;;
11582;SDS011;34299;50.820;4.548;2023-08-17T03:19:49;5.10;;;2.87;;
11582;SDS011;34299;50.820;4.548;2023-08-17T03:22:17;3.57;;;2.40;;
11582;SDS011;34299;50.820;4.548;2023-08-17T03:24:44;5.00;;;2.77;;
11582;SDS011;34299;50.820;4.548;2023-08-17T03:27:11;5.80;;;2.67;;
11582;SDS011;34299;50.820;4.548;2023-08-17T03:29:38;4.83;;;2.73;;
11582;SDS011;34299;50.820;4.548;2023-08-17T03:32:05;6.33;;;2.90;;
11582;SDS011;34299;50.820;4.548;2023-08-17T03:34:32;2.90;;;2.50;;
11582;SDS011;34299;50.820;4.548;2023-08-17T03:36:59;6.77;;;2.37;;
11582;SDS011;34299;50.820;4.548;2023-08-17T03:39:27;3.13;;;2.57;;
11582;SDS011;34299;50.820;4.548;2023-08-17T03:41:54;3.27;;;2.80;;
11582;SDS011;34299;50.820;4.548;2023-08-17T03:44:21;3.00;;;2.60;;
11582;SDS011;34299;50.820;4.548;2023-08-17T03:46:48;5.13;;;2.37;;
11582;SDS011;34299;50.820;4.548;2023-08-17T03:49:15;3.33;;;2.53;;
11582;SDS011;34299;50.820;4.548;2023-08-17T03:51:42;3.83;;;2.80;;
11582;SDS011;34299;50.820;4.548;2023-08-17T03:54:09;3.13;;;2.83;;
11582;SDS011;34299;50.820;4.548;2023-08-17T03:56:37;2.93;;;2.03;;
11582;SDS011;34299;50.820;4.548;2023-08-17T03:59:04;3.77;;;2.70;;
11582;SDS011;34299;50.820;4.548;2023-08-17T04:01:31;4.53;;;3.20;;
11582;SDS011;34299;50.820;4.548;2023-08-17T04:03:58;3.83;;;2.90;;
11582;SDS011;34299;50.820;4.548;2023-08-17T04:06:25;4.23;;;2.87;;
11582;SDS011;34299;50.820;4.548;2023-08-17T04:08:52;3.50;;;2.80;;
11582;SDS011;34299;50.820;4.548;2023-08-17T04:11:19;4.03;;;2.47;;
11582;SDS011;34299;50.820;4.548;2023-08-17T04:13:47;4.57;;;2.47;;
11582;SDS011;34299;50.820;4.548;2023-08-17T04:16:14;7.87;;;2.60;;
11582;SDS011;34299;50.820;4.548;2023-08-17T04:18:41;3.10;;;2.67;;
11582;SDS011;34299;50.820;4.548;2023-08-17T04:21:08;4.03;;;2.47;;
11582;SDS011;34299;50.820;4.548;2023-08-17T04:23:34;3.80;;;3.20;;
11582;SDS011;34299;50.820;4.548;2023-08-17T04:26:01;4.97;;;2.60;;
11582;SDS011;34299;50.820;4.548;2023-08-17T04:28:29;3.30;;;2.53;;
11582;SDS011;34299;50.820;4.548;2023-08-17T04:30:57;2.17;;;1.97;;
11582;SDS011;34299;50.820;4.548;2023-08-17T04:33:24;5.73;;;2.87;;
11582;SDS011;34299;50.820;4.548;2023-08-17T04:35:51;4.77;;;2.67;;
11582;SDS011;34299;50.820;4.548;2023-08-17T04:38:18;3.53;;;2.53;;
11582;SDS011;34299;50.820;4.548;2023-08-17T04:40:44;4.73;;;2.80;;
11582;SDS011;34299;50.820;4.548;2023-08-17T04:43:12;3.37;;;2.70;;
11582;SDS011;34299;50.820;4.548;2023-08-17T04:45:39;3.83;;;2.60;;
11582;SDS011;34299;50.820;4.548;2023-08-17T04:48:07;4.43;;;2.70;;
11582;SDS011;34299;50.820;4.548;2023-08-17T04:50:34;4.63;;;2.70;;
11582;SDS011;34299;50.820;4.548;2023-08-17T04:53:01;5.17;;;2.80;;
11582;SDS011;34299;50.820;4.548;2023-08-17T04:55:28;3.73;;;2.57;;
11582;SDS011;34299;50.820;4.548;2023-08-17T04:57:57;2.93;;;2.40;;
11582;SDS011;34299;50.820;4.548;2023-08-17T05:00:24;3.13;;;2.40;;
11582;SDS011;34299;50.820;4.548;2023-08-17T05:02:53;2.50;;;2.30;;
11582;SDS011;34299;50.820;4.548;2023-08-17T05:05:21;2.93;;;2.60;;
11582;SDS011;34299;50.820;4.548;2023-08-17T05:07:49;5.20;;;2.47;;
11582;SDS011;34299;50.820;4.548;2023-08-17T05:10:16;3.90;;;2.40;;
11582;SDS011;34299;50.820;4.548;2023-08-17T05:12:42;4.37;;;2.70;;
11582;SDS011;34299;50.820;4.548;2023-08-17T05:15:09;6.40;;;2.60;;
11582;SDS011;34299;50.820;4.548;2023-08-17T05:17:36;3.77;;;2.67;;
11582;SDS011;34299;50.820;4.548;2023-08-17T05:20:07;3.00;;;2.23;;
11582;SDS011;34299;50.820;4.548;2023-08-17T05:22:36;3.00;;;2.27;;
11582;SDS011;34299;50.820;4.548;2023-08-17T05:25:03;6.07;;;2.80;;
11582;SDS011;34299;50.820;4.548;2023-08-17T05:27:31;3.77;;;2.37;;
11582;SDS011;34299;50.820;4.548;2023-08-17T05:29:58;3.53;;;2.60;;
11582;SDS011;34299;50.820;4.548;2023-08-17T05:32:24;4.87;;;2.67;;
11582;SDS011;34299;50.820;4.548;2023-08-17T05:34:52;3.00;;;2.30;;
11582;SDS011;34299;50.820;4.548;2023-08-17T05:37:19;2.83;;;2.50;;
11582;SDS011;34299;50.820;4.548;2023-08-17T05:39:47;4.73;;;2.30;;
11582;SDS011;34299;50.820;4.548;2023-08-17T05:42:14;3.77;;;2.73;;
11582;SDS011;34299;50.820;4.548;2023-08-17T05:44:41;4.10;;;2.03;;
11582;SDS011;34299;50.820;4.548;2023-08-17T05:47:08;4.63;;;2.73;;
11582;SDS011;34299;50.820;4.548;2023-08-17T05:49:35;5.47;;;2.60;;
11582;SDS011;34299;50.820;4.548;2023-08-17T05:52:03;5.53;;;2.47;;
11582;SDS011;34299;50.820;4.548;2023-08-17T05:54:30;3.67;;;2.73;;
11582;SDS011;34299;50.820;4.548;2023-08-17T05:56:58;4.20;;;2.77;;
11582;SDS011;34299;50.820;4.548;2023-08-17T05:59:25;3.17;;;2.87;;
11582;SDS011;34299;50.820;4.548;2023-08-17T06:01:52;5.27;;;3.00;;
11582;SDS011;34299;50.820;4.548;2023-08-17T06:04:19;4.90;;;2.90;;
11582;SDS011;34299;50.820;4.548;2023-08-17T06:06:46;4.40;;;2.90;;
11582;SDS011;34299;50.820;4.548;2023-08-17T06:09:13;3.33;;;2.70;;
11582;SDS011;34299;50.820;4.548;2023-08-17T06:11:40;3.60;;;2.50;;
11582;SDS011;34299;50.820;4.548;2023-08-17T06:14:09;7.00;;;2.73;;
11582;SDS011;34299;50.820;4.548;2023-08-17T06:16:36;7.20;;;2.90;;
11582;SDS011;34299;50.820;4.548;2023-08-17T06:19:03;3.77;;;2.60;;
11582;SDS011;34299;50.820;4.548;2023-08-17T06:21:30;2.60;;;2.40;;
11582;SDS011;34299;50.820;4.548;2023-08-17T06:23:57;2.93;;;2.43;;
11582;SDS011;34299;50.820;4.548;2023-08-17T06:26:23;4.10;;;2.77;;
11582;SDS011;34299;50.820;4.548;2023-08-17T06:28:50;8.20;;;3.30;;
11582;SDS011;34299;50.820;4.548;2023-08-17T06:31:19;5.43;;;2.90;;
11582;SDS011;34299;50.820;4.548;2023-08-17T06:33:46;3.87;;;3.07;;
11582;SDS011;34299;50.820;4.548;2023-08-17T06:36:13;5.23;;;3.10;;
11582;SDS011;34299;50.820;4.548;2023-08-17T06:38:41;5.10;;;3.13;;
11582;SDS011;34299;50.820;4.548;2023-08-17T06:41:08;3.53;;;3.23;;
11582;SDS011;34299;50.820;4.548;2023-08-17T06:43:35;3.77;;;2.40;;
11582;SDS011;34299;50.820;4.548;2023-08-17T06:46:02;4.10;;;3.03;;
11582;SDS011;34299;50.820;4.548;2023-08-17T06:48:30;5.23;;;3.00;;
11582;SDS011;34299;50.820;4.548;2023-08-17T06:50:57;5.10;;;2.97;;
11582;SDS011;34299;50.820;4.548;2023-08-17T06:53:24;7.97;;;3.27;;
11582;SDS011;34299;50.820;4.548;2023-08-17T06:55:51;6.00;;;3.23;;
11582;SDS011;34299;50.820;4.548;2023-08-17T06:58:18;5.30;;;3.23;;
11582;SDS011;34299;50.820;4.548;2023-08-17T07:00:45;6.23;;;3.47;;
11582;SDS011;34299;50.820;4.548;2023-08-17T07:03:12;9.80;;;3.63;;
11582;SDS011;34299;50.820;4.548;2023-08-17T07:05:40;9.53;;;3.90;;
11582;SDS011;34299;50.820;4.548;2023-08-17T07:08:07;9.57;;;3.63;;
11582;SDS011;34299;50.820;4.548;2023-08-17T07:10:35;8.70;;;3.90;;
11582;SDS011;34299;50.820;4.548;2023-08-17T07:13:02;4.17;;;3.77;;
11582;SDS011;34299;50.820;4.548;2023-08-17T07:15:29;5.30;;;3.50;;
11582;SDS011;34299;50.820;4.548;2023-08-17T07:17:56;5.73;;;3.77;;
11582;SDS011;34299;50.820;4.548;2023-08-17T07:20:23;8.13;;;3.63;;
11582;SDS011;34299;50.820;4.548;2023-08-17T07:22:51;5.23;;;3.67;;
11582;SDS011;34299;50.820;4.548;2023-08-17T07:25:18;5.90;;;3.73;;
11582;SDS011;34299;50.820;4.548;2023-08-17T07:27:45;4.37;;;3.73;;
11582;SDS011;34299;50.820;4.548;2023-08-17T07:30:12;10.67;;;4.10;;
11582;SDS011;34299;50.820;4.548;2023-08-17T07:32:39;7.70;;;4.40;;
11582;SDS011;34299;50.820;4.548;2023-08-17T07:35:06;5.87;;;4.37;;
11582;SDS011;34299;50.820;4.548;2023-08-17T07:37:33;6.00;;;4.47;;
11582;SDS011;34299;50.820;4.548;2023-08-17T07:40:02;5.90;;;4.50;;
11582;SDS011;34299;50.820;4.548;2023-08-17T07:42:30;8.10;;;4.50;;
11582;SDS011;34299;50.820;4.548;2023-08-17T07:44:57;7.37;;;3.90;;
11582;SDS011;34299;50.820;4.548;2023-08-17T07:47:24;6.03;;;4.50;;
11582;SDS011;34299;50.820;4.548;2023-08-17T07:49:51;10.83;;;4.47;;
11582;SDS011;34299;50.820;4.548;2023-08-17T07:52:18;6.50;;;4.23;;
11582;SDS011;34299;50.820;4.548;2023-08-17T07:54:45;4.97;;;4.00;;
11582;SDS011;34299;50.820;4.548;2023-08-17T07:57:13;5.77;;;4.10;;
11582;SDS011;34299;50.820;4.548;2023-08-17T07:59:40;5.93;;;4.17;;
11582;SDS011;34299;50.820;4.548;2023-08-17T08:02:07;7.80;;;4.43;;
11582;SDS011;34299;50.820;4.548;2023-08-17T08:04:34;9.07;;;4.00;;
11582;SDS011;34299;50.820;4.548;2023-08-17T08:07:01;9.00;;;5.80;;
11582;SDS011;34299;50.820;4.548;2023-08-17T08:09:28;6.90;;;4.47;;
11582;SDS011;34299;50.820;4.548;2023-08-17T08:11:55;5.77;;;3.90;;
11582;SDS011;34299;50.820;4.548;2023-08-17T08:14:23;5.93;;;3.73;;
11582;SDS011;34299;50.820;4.548;2023-08-17T08:16:51;5.90;;;3.57;;
11582;SDS011;34299;50.820;4.548;2023-08-17T08:19:18;8.27;;;4.23;;
11582;SDS011;34299;50.820;4.548;2023-08-17T08:21:45;5.37;;;3.70;;
11582;SDS011;34299;50.820;4.548;2023-08-17T08:24:12;5.70;;;3.70;;
11582;SDS011;34299;50.820;4.548;2023-08-17T08:26:39;8.77;;;4.10;;
11582;SDS011;34299;50.820;4.548;2023-08-17T08:29:06;5.07;;;3.70;;
11582;SDS011;34299;50.820;4.548;2023-08-17T08:31:34;6.70;;;3.60;;
11582;SDS011;34299;50.820;4.548;2023-08-17T08:34:01;4.27;;;3.43;;
11582;SDS011;34299;50.820;4.548;2023-08-17T08:36:28;6.97;;;4.30;;
11582;SDS011;34299;50.820;4.548;2023-08-17T08:38:55;8.33;;;4.33;;
11582;SDS011;34299;50.820;4.548;2023-08-17T08:41:22;6.87;;;4.23;;
11582;SDS011;34299;50.820;4.548;2023-08-17T08:43:52;5.43;;;4.33;;
11582;SDS011;34299;50.820;4.548;2023-08-17T08:46:19;6.47;;;4.47;;
11582;SDS011;34299;50.820;4.548;2023-08-17T08:48:48;9.87;;;5.53;;
11582;SDS011;34299;50.820;4.548;2023-08-17T08:51:19;8.90;;;4.93;;
11582;SDS011;34299;50.820;4.548;2023-08-17T08:53:52;11.00;;;5.10;;
11582;SDS011;34299;50.820;4.548;2023-08-17T08:56:26;10.20;;;5.50;;
11582;SDS011;34299;50.820;4.548;2023-08-17T08:58:57;8.83;;;5.10;;
11582;SDS011;34299;50.820;4.548;2023-08-17T09:01:27;9.43;;;5.43;;
11582;SDS011;34299;50.820;4.548;2023-08-17T09:03:59;10.17;;;5.60;;
11582;SDS011;34299;50.820;4.548;2023-08-17T09:06:26;12.23;;;5.50;;
11582;SDS011;34299;50.820;4.548;2023-08-17T09:08:55;9.13;;;5.57;;
11582;SDS011;34299;50.820;4.548;2023-08-17T09:11:23;9.20;;;5.47;;
11582;SDS011;34299;50.820;4.548;2023-08-17T09:13:52;7.93;;;4.90;;
11582;SDS011;34299;50.820;4.548;2023-08-17T09:16:19;9.17;;;5.60;;
11582;SDS011;34299;50.820;4.548;2023-08-17T09:18:46;8.00;;;4.47;;
11582;SDS011;34299;50.820;4.548;2023-08-17T09:21:24;9.57;;;5.03;;
11582;SDS011;34299;50.820;4.548;2023-08-17T09:23:51;11.17;;;5.97;;
11582;SDS011;34299;50.820;4.548;2023-08-17T09:26:19;7.93;;;5.70;;
11582;SDS011;34299;50.820;4.548;2023-08-17T09:28:47;8.30;;;5.03;;
11582;SDS011;34299;50.820;4.548;2023-08-17T09:31:14;6.27;;;4.93;;
11582;SDS011;34299;50.820;4.548;2023-08-17T09:33:41;8.17;;;5.07;;
11582;SDS011;34299;50.820;4.548;2023-08-17T09:36:09;6.37;;;4.63;;
11582;SDS011;34299;50.820;4.548;2023-08-17T09:38:39;12.93;;;5.33;;
11582;SDS011;34299;50.820;4.548;2023-08-17T09:41:07;8.20;;;5.17;;
11582;SDS011;34299;50.820;4.548;2023-08-17T09:43:34;7.60;;;5.00;;
11582;SDS011;34299;50.820;4.548;2023-08-17T09:46:02;6.93;;;4.80;;
11582;SDS011;34299;50.820;4.548;2023-08-17T09:48:29;6.67;;;4.97;;
11582;SDS011;34299;50.820;4.548;2023-08-17T09:50:57;6.30;;;4.97;;
11582;SDS011;34299;50.820;4.548;2023-08-17T09:53:23;8.97;;;6.23;;
11582;SDS011;34299;50.820;4.548;2023-08-17T09:55:52;9.67;;;6.37;;
11582;SDS011;34299;50.820;4.548;2023-08-17T09:58:21;7.93;;;5.60;;
11582;SDS011;34299;50.820;4.548;2023-08-17T10:00:48;9.63;;;6.10;;
11582;SDS011;34299;50.820;4.548;2023-08-17T10:03:17;11.07;;;5.93;;
11582;SDS011;34299;50.820;4.548;2023-08-17T10:05:47;8.80;;;6.03;;
11582;SDS011;34299;50.820;4.548;2023-08-17T10:08:19;10.90;;;6.60;;
11582;SDS011;34299;50.820;4.548;2023-08-17T10:10:47;11.17;;;6.47;;
11582;SDS011;34299;50.820;4.548;2023-08-17T10:13:20;8.17;;;6.20;;
11582;SDS011;34299;50.820;4.548;2023-08-17T10:15:55;9.20;;;5.60;;
11582;SDS011;34299;50.820;4.548;2023-08-17T10:18:29;7.53;;;5.67;;
11582;SDS011;34299;50.820;4.548;2023-08-17T10:21:02;9.20;;;6.00;;
11582;SDS011;34299;50.820;4.548;2023-08-17T10:23:33;9.30;;;5.60;;
11582;SDS011;34299;50.820;4.548;2023-08-17T10:26:01;9.03;;;5.80;;
11582;SDS011;34299;50.820;4.548;2023-08-17T10:28:31;11.00;;;6.37;;
11582;SDS011;34299;50.820;4.548;2023-08-17T10:30:58;9.67;;;5.97;;
11582;SDS011;34299;50.820;4.548;2023-08-17T10:33:26;9.17;;;6.40;;
11582;SDS011;34299;50.820;4.548;2023-08-17T10:35:55;10.03;;;7.00;;
11582;SDS011;34299;50.820;4.548;2023-08-17T10:38:22;10.80;;;7.40;;
11582;SDS011;34299;50.820;4.548;2023-08-17T10:41:07;9.63;;;7.50;;
11582;SDS011;34299;50.820;4.548;2023-08-17T10:43:49;15.03;;;7.93;;
11582;SDS011;34299;50.820;4.548;2023-08-17T10:46:20;10.90;;;7.30;;
11582;SDS011;34299;50.820;4.548;2023-08-17T10:48:47;9.30;;;6.83;;
11582;SDS011;34299;50.820;4.548;2023-08-17T10:51:14;11.57;;;7.97;;
11582;SDS011;34299;50.820;4.548;2023-08-17T10:53:42;10.80;;;7.60;;
11582;SDS011;34299;50.820;4.548;2023-08-17T10:56:11;10.20;;;6.67;;
11582;SDS011;34299;50.820;4.548;2023-08-17T10:58:39;11.97;;;7.73;;
11582;SDS011;34299;50.820;4.548;2023-08-17T11:01:09;10.80;;;6.43;;
11582;SDS011;34299;50.820;4.548;2023-08-17T11:03:36;9.90;;;6.67;;
11582;SDS011;34299;50.820;4.548;2023-08-17T11:06:14;9.77;;;6.90;;
11582;SDS011;34299;50.820;4.548;2023-08-17T11:08:52;9.80;;;6.67;;
11582;SDS011;34299;50.820;4.548;2023-08-17T11:11:21;8.50;;;6.40;;
11582;SDS011;34299;50.820;4.548;2023-08-17T11:13:49;10.47;;;7.03;;
11582;SDS011;34299;50.820;4.548;2023-08-17T11:16:17;10.43;;;7.20;;
11582;SDS011;34299;50.820;4.548;2023-08-17T11:18:45;9.17;;;6.90;;
11582;SDS011;34299;50.820;4.548;2023-08-17T11:21:13;8.80;;;7.07;;
11582;SDS011;34299;50.820;4.548;2023-08-17T11:23:41;11.07;;;6.57;;
11582;SDS011;34299;50.820;4.548;2023-08-17T11:26:08;8.20;;;6.87;;
11582;SDS011;34299;50.820;4.548;2023-08-17T11:28:35;9.73;;;6.50;;
11582;SDS011;34299;50.820;4.548;2023-08-17T11:31:04;9.80;;;7.23;;
11582;SDS011;34299;50.820;4.548;2023-08-17T11:33:34;8.53;;;6.60;;
11582;SDS011;34299;50.820;4.548;2023-08-17T11:36:03;7.90;;;6.60;;
11582;SDS011;34299;50.820;4.548;2023-08-17T11:38:31;9.57;;;6.27;;
11582;SDS011;34299;50.820;4.548;2023-08-17T11:40:59;8.10;;;6.17;;
11582;SDS011;34299;50.820;4.548;2023-08-17T11:43:27;9.33;;;6.47;;
11582;SDS011;34299;50.820;4.548;2023-08-17T11:45:54;6.80;;;6.10;;
11582;SDS011;34299;50.820;4.548;2023-08-17T11:48:22;7.17;;;6.47;;
11582;SDS011;34299;50.820;4.548;2023-08-17T11:50:52;7.53;;;6.73;;
11582;SDS011;34299;50.820;4.548;2023-08-17T11:53:20;7.80;;;6.30;;
11582;SDS011;34299;50.820;4.548;2023-08-17T11:55:47;9.03;;;6.80;;
11582;SDS011;34299;50.820;4.548;2023-08-17T11:58:14;9.40;;;6.50;;
11582;SDS011;34299;50.820;4.548;2023-08-17T12:00:42;10.80;;;6.77;;
11582;SDS011;34299;50.820;4.548;2023-08-17T12:03:12;8.97;;;7.57;;
11582;SDS011;34299;50.820;4.548;2023-08-17T12:05:40;11.27;;;7.50;;
11582;SDS011;34299;50.820;4.548;2023-08-17T12:08:09;10.90;;;7.87;;
11582;SDS011;34299;50.820;4.548;2023-08-17T12:10:37;8.10;;;7.27;;
11582;SDS011;34299;50.820;4.548;2023-08-17T12:13:04;9.90;;;7.57;;
11582;SDS011;34299;50.820;4.548;2023-08-17T12:15:31;10.80;;;7.50;;
11582;SDS011;34299;50.820;4.548;2023-08-17T12:17:59;8.37;;;7.57;;
11582;SDS011;34299;50.820;4.548;2023-08-17T12:20:28;8.87;;;6.50;;
11582;SDS011;34299;50.820;4.548;2023-08-17T12:22:56;9.17;;;7.57;;
11582;SDS011;34299;50.820;4.548;2023-08-17T12:25:25;9.57;;;7.67;;
11582;SDS011;34299;50.820;4.548;2023-08-17T12:27:52;10.27;;;7.93;;
11582;SDS011;34299;50.820;4.548;2023-08-17T12:30:26;13.07;;;8.37;;
11582;SDS011;34299;50.820;4.548;2023-08-17T12:32:56;10.53;;;8.13;;
11582;SDS011;34299;50.820;4.548;2023-08-17T12:35:23;13.03;;;8.53;;
11582;SDS011;34299;50.820;4.548;2023-08-17T12:37:51;12.97;;;8.67;;
11582;SDS011;34299;50.820;4.548;2023-08-17T12:40:18;9.80;;;8.23;;
11582;SDS011;34299;50.820;4.548;2023-08-17T12:42:47;14.87;;;9.17;;
11582;SDS011;34299;50.820;4.548;2023-08-17T12:45:14;13.10;;;8.93;;
11582;SDS011;34299;50.820;4.548;2023-08-17T12:47:42;12.67;;;8.47;;
11582;SDS011;34299;50.820;4.548;2023-08-17T12:50:09;12.40;;;8.47;;
11582;SDS011;34299;50.820;4.548;2023-08-17T12:52:36;12.13;;;8.30;;
11582;SDS011;34299;50.820;4.548;2023-08-17T12:55:04;12.03;;;8.10;;
11582;SDS011;34299;50.820;4.548;2023-08-17T12:57:31;17.00;;;9.43;;
11582;SDS011;34299;50.820;4.548;2023-08-17T12:59:59;14.07;;;10.10;;
11582;SDS011;34299;50.820;4.548;2023-08-17T13:02:26;13.40;;;9.43;;
11582;SDS011;34299;50.820;4.548;2023-08-17T13:04:53;13.10;;;9.33;;
11582;SDS011;34299;50.820;4.548;2023-08-17T13:07:20;12.83;;;9.67;;
11582;SDS011;34299;50.820;4.548;2023-08-17T13:09:47;13.83;;;9.20;;
11582;SDS011;34299;50.820;4.548;2023-08-17T13:12:14;11.77;;;8.83;;
11582;SDS011;34299;50.820;4.548;2023-08-17T13:14:41;12.03;;;9.30;;
11582;SDS011;34299;50.820;4.548;2023-08-17T13:17:09;13.47;;;9.43;;
11582;SDS011;34299;50.820;4.548;2023-08-17T13:19:36;14.60;;;10.43;;
11582;SDS011;34299;50.820;4.548;2023-08-17T13:22:03;12.93;;;10.37;;
11582;SDS011;34299;50.820;4.548;2023-08-17T13:24:30;15.60;;;9.80;;
11582;SDS011;34299;50.820;4.548;2023-08-17T13:26:57;12.83;;;10.00;;
11582;SDS011;34299;50.820;4.548;2023-08-17T13:29:24;14.63;;;9.27;;
11582;SDS011;34299;50.820;4.548;2023-08-17T13:31:51;12.17;;;9.53;;
11582;SDS011;34299;50.820;4.548;2023-08-17T13:34:19;16.03;;;10.23;;
11582;SDS011;34299;50.820;4.548;2023-08-17T13:36:46;11.23;;;8.97;;
11582;SDS011;34299;50.820;4.548;2023-08-17T13:39:13;17.77;;;9.30;;
11582;SDS011;34299;50.820;4.548;2023-08-17T13:41:42;14.57;;;9.07;;
11582;SDS011;34299;50.820;4.548;2023-08-17T13:44:09;13.93;;;9.67;;
11582;SDS011;34299;50.820;4.548;2023-08-17T13:46:35;14.03;;;9.70;;
11582;SDS011;34299;50.820;4.548;2023-08-17T13:49:03;14.20;;;10.00;;
11582;SDS011;34299;50.820;4.548;2023-08-17T13:51:32;15.27;;;9.67;;
11582;SDS011;34299;50.820;4.548;2023-08-17T13:53:59;14.97;;;10.27;;
11582;SDS011;34299;50.820;4.548;2023-08-17T13:56:26;14.07;;;10.17;;
11582;SDS011;34299;50.820;4.548;2023-08-17T13:58:53;13.53;;;10.37;;
11582;SDS011;34299;50.820;4.548;2023-08-17T14:01:19;13.20;;;9.93;;
11582;SDS011;34299;50.820;4.548;2023-08-17T14:03:46;12.20;;;10.20;;
11582;SDS011;34299;50.820;4.548;2023-08-17T14:06:13;12.80;;;10.70;;
11582;SDS011;34299;50.820;4.548;2023-08-17T14:08:42;12.97;;;9.70;;
11582;SDS011;34299;50.820;4.548;2023-08-17T14:11:09;18.27;;;11.07;;
11582;SDS011;34299;50.820;4.548;2023-08-17T14:13:36;13.30;;;10.13;;
11582;SDS011;34299;50.820;4.548;2023-08-17T14:16:04;15.47;;;9.93;;
11582;SDS011;34299;50.820;4.548;2023-08-17T14:18:31;15.60;;;10.70;;
11582;SDS011;34299;50.820;4.548;2023-08-17T14:20:58;14.30;;;10.93;;
11582;SDS011;34299;50.820;4.548;2023-08-17T14:23:25;12.30;;;10.20;;
11582;SDS011;34299;50.820;4.548;2023-08-17T14:25:53;12.03;;;8.80;;
11582;SDS011;34299;50.820;4.548;2023-08-17T14:28:20;12.90;;;10.17;;
11582;SDS011;34299;50.820;4.548;2023-08-17T14:30:47;13.20;;;9.93;;
11582;SDS011;34299;50.820;4.548;2023-08-17T14:33:14;13.67;;;10.20;;
11582;SDS011;34299;50.820;4.548;2023-08-17T14:35:41;13.40;;;9.67;;
11582;SDS011;34299;50.820;4.548;2023-08-17T14:38:08;11.37;;;9.20;;
11582;SDS011;34299;50.820;4.548;2023-08-17T14:40:38;12.73;;;9.30;;
11582;SDS011;34299;50.820;4.548;2023-08-17T14:43:09;10.97;;;9.23;;
11582;SDS011;34299;50.820;4.548;2023-08-17T14:45:38;11.93;;;8.87;;
11582;SDS011;34299;50.820;4.548;2023-08-17T14:48:06;11.53;;;9.80;;